sensor_id;sensor_type;location;lat;lon;timestamp;P1;durP1;ratioP1;P2;durP2;ratioP2
13303;SDS011;6720;51.958;4.540;2023-07-31T00:02:02;31.73;;;9.77;;
13303;SDS011;6720;51.958;4.540;2023-07-31T00:04:27;25.93;;;9.63;;
13303;SDS011;6720;51.958;4.540;2023-07-31T00:06:53;24.87;;;9.07;;
13303;SDS011;6720;51.958;4.540;2023-07-31T00:09:18;26.93;;;9.70;;
13303;SDS011;6720;51.958;4.540;2023-07-31T00:11:43;25.30;;;9.63;;
13303;SDS011;6720;51.958;4.540;2023-07-31T00:14:09;29.23;;;9.90;;
13303;SDS011;6720;51.958;4.540;2023-07-31T00:16:34;24.37;;;9.33;;
13303;SDS011;6720;51.958;4.540;2023-07-31T00:19:00;26.53;;;9.07;;
13303;SDS011;6720;51.958;4.540;2023-07-31T00:21:25;28.07;;;10.70;;
13303;SDS011;6720;51.958;4.540;2023-07-31T00:23:51;31.20;;;9.80;;
13303;SDS011;6720;51.958;4.540;2023-07-31T00:26:16;32.60;;;10.50;;
13303;SDS011;6720;51.958;4.540;2023-07-31T00:28:42;33.10;;;10.67;;
13303;SDS011;6720;51.958;4.540;2023-07-31T00:31:07;30.07;;;10.30;;
13303;SDS011;6720;51.958;4.540;2023-07-31T00:33:34;33.23;;;10.80;;
13303;SDS011;6720;51.958;4.540;2023-07-31T00:36:00;29.10;;;10.03;;
13303;SDS011;6720;51.958;4.540;2023-07-31T00:38:25;30.33;;;11.03;;
13303;SDS011;6720;51.958;4.540;2023-07-31T00:40:51;28.87;;;10.30;;
13303;SDS011;6720;51.958;4.540;2023-07-31T00:43:16;27.30;;;11.07;;
13303;SDS011;6720;51.958;4.540;2023-07-31T00:45:41;27.27;;;11.37;;
13303;SDS011;6720;51.958;4.540;2023-07-31T00:48:07;24.83;;;10.87;;
13303;SDS011;6720;51.958;4.540;2023-07-31T00:50:33;32.40;;;11.53;;
13303;SDS011;6720;51.958;4.540;2023-07-31T00:52:59;38.07;;;12.00;;
13303;SDS011;6720;51.958;4.540;2023-07-31T00:55:25;26.97;;;9.03;;
13303;SDS011;6720;51.958;4.540;2023-07-31T00:57:52;25.77;;;9.80;;
13303;SDS011;6720;51.958;4.540;2023-07-31T01:00:20;25.43;;;9.57;;
13303;SDS011;6720;51.958;4.540;2023-07-31T01:02:46;31.83;;;10.13;;
13303;SDS011;6720;51.958;4.540;2023-07-31T01:05:13;21.47;;;8.63;;
13303;SDS011;6720;51.958;4.540;2023-07-31T01:10:46;16.43;;;7.37;;
13303;SDS011;6720;51.958;4.540;2023-07-31T01:13:25;15.60;;;7.53;;
13303;SDS011;6720;51.958;4.540;2023-07-31T01:15:51;19.80;;;7.50;;
13303;SDS011;6720;51.958;4.540;2023-07-31T01:18:17;21.77;;;8.23;;
13303;SDS011;6720;51.958;4.540;2023-07-31T01:20:42;19.30;;;7.93;;
13303;SDS011;6720;51.958;4.540;2023-07-31T01:26:02;20.87;;;9.70;;
13303;SDS011;6720;51.958;4.540;2023-07-31T01:31:18;26.23;;;9.87;;
13303;SDS011;6720;51.958;4.540;2023-07-31T01:33:48;27.80;;;10.63;;
13303;SDS011;6720;51.958;4.540;2023-07-31T01:36:15;28.30;;;10.90;;
13303;SDS011;6720;51.958;4.540;2023-07-31T01:38:40;31.17;;;10.40;;
13303;SDS011;6720;51.958;4.540;2023-07-31T01:41:06;26.23;;;10.00;;
13303;SDS011;6720;51.958;4.540;2023-07-31T01:43:31;24.97;;;8.20;;
13303;SDS011;6720;51.958;4.540;2023-07-31T01:45:57;23.27;;;9.30;;
13303;SDS011;6720;51.958;4.540;2023-07-31T01:48:22;28.47;;;9.70;;
13303;SDS011;6720;51.958;4.540;2023-07-31T01:50:47;25.27;;;8.77;;
13303;SDS011;6720;51.958;4.540;2023-07-31T01:53:13;28.90;;;9.67;;
13303;SDS011;6720;51.958;4.540;2023-07-31T01:55:38;25.40;;;10.17;;
13303;SDS011;6720;51.958;4.540;2023-07-31T01:58:04;25.13;;;8.90;;
13303;SDS011;6720;51.958;4.540;2023-07-31T02:00:29;24.63;;;9.00;;
13303;SDS011;6720;51.958;4.540;2023-07-31T02:02:55;30.77;;;10.23;;
13303;SDS011;6720;51.958;4.540;2023-07-31T02:05:20;28.63;;;9.83;;
13303;SDS011;6720;51.958;4.540;2023-07-31T02:07:46;25.83;;;9.40;;
13303;SDS011;6720;51.958;4.540;2023-07-31T02:10:11;31.03;;;10.83;;
13303;SDS011;6720;51.958;4.540;2023-07-31T02:12:37;32.60;;;10.47;;
13303;SDS011;6720;51.958;4.540;2023-07-31T02:15:02;27.93;;;10.23;;
13303;SDS011;6720;51.958;4.540;2023-07-31T02:17:28;21.00;;;9.60;;
13303;SDS011;6720;51.958;4.540;2023-07-31T02:19:54;29.60;;;10.10;;
13303;SDS011;6720;51.958;4.540;2023-07-31T02:22:20;26.90;;;9.77;;
13303;SDS011;6720;51.958;4.540;2023-07-31T02:24:45;28.57;;;9.67;;
13303;SDS011;6720;51.958;4.540;2023-07-31T02:27:10;28.10;;;9.83;;
13303;SDS011;6720;51.958;4.540;2023-07-31T02:29:36;28.33;;;9.23;;
13303;SDS011;6720;51.958;4.540;2023-07-31T02:32:01;26.93;;;9.00;;
13303;SDS011;6720;51.958;4.540;2023-07-31T02:34:27;25.13;;;9.00;;
13303;SDS011;6720;51.958;4.540;2023-07-31T02:36:53;24.23;;;9.27;;
13303;SDS011;6720;51.958;4.540;2023-07-31T02:39:18;18.33;;;8.43;;
13303;SDS011;6720;51.958;4.540;2023-07-31T02:41:43;25.93;;;9.37;;
13303;SDS011;6720;51.958;4.540;2023-07-31T02:44:09;21.47;;;8.33;;
13303;SDS011;6720;51.958;4.540;2023-07-31T02:46:35;22.30;;;8.17;;
13303;SDS011;6720;51.958;4.540;2023-07-31T02:49:01;22.03;;;8.03;;
13303;SDS011;6720;51.958;4.540;2023-07-31T02:51:26;20.23;;;7.90;;
13303;SDS011;6720;51.958;4.540;2023-07-31T02:53:51;27.70;;;8.70;;
13303;SDS011;6720;51.958;4.540;2023-07-31T02:56:17;22.60;;;8.83;;
13303;SDS011;6720;51.958;4.540;2023-07-31T02:58:42;25.03;;;9.30;;
13303;SDS011;6720;51.958;4.540;2023-07-31T03:01:08;20.07;;;7.20;;
13303;SDS011;6720;51.958;4.540;2023-07-31T03:03:33;21.00;;;9.10;;
13303;SDS011;6720;51.958;4.540;2023-07-31T03:05:59;21.50;;;8.53;;
13303;SDS011;6720;51.958;4.540;2023-07-31T03:08:24;22.00;;;8.17;;
13303;SDS011;6720;51.958;4.540;2023-07-31T03:10:49;20.00;;;8.37;;
13303;SDS011;6720;51.958;4.540;2023-07-31T03:13:15;20.37;;;8.07;;
13303;SDS011;6720;51.958;4.540;2023-07-31T03:15:43;19.70;;;7.80;;
13303;SDS011;6720;51.958;4.540;2023-07-31T03:18:09;25.53;;;8.57;;
13303;SDS011;6720;51.958;4.540;2023-07-31T03:20:35;20.93;;;8.70;;
13303;SDS011;6720;51.958;4.540;2023-07-31T03:23:00;24.53;;;8.63;;
13303;SDS011;6720;51.958;4.540;2023-07-31T03:25:25;23.23;;;9.17;;
13303;SDS011;6720;51.958;4.540;2023-07-31T03:27:51;24.93;;;8.60;;
13303;SDS011;6720;51.958;4.540;2023-07-31T03:30:16;23.07;;;9.63;;
13303;SDS011;6720;51.958;4.540;2023-07-31T03:32:42;23.10;;;9.30;;
13303;SDS011;6720;51.958;4.540;2023-07-31T03:35:07;20.37;;;9.00;;
13303;SDS011;6720;51.958;4.540;2023-07-31T03:37:33;25.13;;;9.33;;
13303;SDS011;6720;51.958;4.540;2023-07-31T03:39:58;22.57;;;8.73;;
13303;SDS011;6720;51.958;4.540;2023-07-31T03:42:24;22.97;;;8.90;;
13303;SDS011;6720;51.958;4.540;2023-07-31T03:44:49;21.83;;;8.97;;
13303;SDS011;6720;51.958;4.540;2023-07-31T03:47:15;26.47;;;9.63;;
13303;SDS011;6720;51.958;4.540;2023-07-31T03:49:40;18.83;;;9.17;;
13303;SDS011;6720;51.958;4.540;2023-07-31T03:52:06;22.23;;;9.90;;
13303;SDS011;6720;51.958;4.540;2023-07-31T03:54:31;21.27;;;9.33;;
13303;SDS011;6720;51.958;4.540;2023-07-31T03:56:57;24.17;;;9.63;;
13303;SDS011;6720;51.958;4.540;2023-07-31T03:59:22;18.90;;;9.40;;
13303;SDS011;6720;51.958;4.540;2023-07-31T04:01:47;21.53;;;10.00;;
13303;SDS011;6720;51.958;4.540;2023-07-31T04:04:13;20.73;;;10.03;;
13303;SDS011;6720;51.958;4.540;2023-07-31T04:06:38;16.20;;;8.53;;
13303;SDS011;6720;51.958;4.540;2023-07-31T04:09:04;17.90;;;8.50;;
13303;SDS011;6720;51.958;4.540;2023-07-31T04:11:29;22.73;;;9.60;;
13303;SDS011;6720;51.958;4.540;2023-07-31T04:13:54;15.60;;;8.27;;
13303;SDS011;6720;51.958;4.540;2023-07-31T04:16:20;18.33;;;7.97;;
13303;SDS011;6720;51.958;4.540;2023-07-31T04:18:45;14.10;;;7.90;;
13303;SDS011;6720;51.958;4.540;2023-07-31T04:21:11;14.33;;;7.13;;
13303;SDS011;6720;51.958;4.540;2023-07-31T04:23:36;13.10;;;6.90;;
13303;SDS011;6720;51.958;4.540;2023-07-31T04:26:02;13.07;;;7.10;;
13303;SDS011;6720;51.958;4.540;2023-07-31T04:28:27;13.17;;;6.70;;
13303;SDS011;6720;51.958;4.540;2023-07-31T04:30:53;10.73;;;6.90;;
13303;SDS011;6720;51.958;4.540;2023-07-31T04:33:18;12.93;;;6.53;;
13303;SDS011;6720;51.958;4.540;2023-07-31T04:35:51;10.53;;;6.80;;
13303;SDS011;6720;51.958;4.540;2023-07-31T04:38:17;12.70;;;6.83;;
13303;SDS011;6720;51.958;4.540;2023-07-31T04:40:46;11.60;;;7.17;;
13303;SDS011;6720;51.958;4.540;2023-07-31T04:43:12;10.40;;;6.43;;
13303;SDS011;6720;51.958;4.540;2023-07-31T04:45:37;12.90;;;7.03;;
13303;SDS011;6720;51.958;4.540;2023-07-31T04:48:03;12.30;;;6.90;;
13303;SDS011;6720;51.958;4.540;2023-07-31T04:50:29;11.23;;;7.30;;
13303;SDS011;6720;51.958;4.540;2023-07-31T04:52:55;14.87;;;7.40;;
13303;SDS011;6720;51.958;4.540;2023-07-31T04:55:21;15.77;;;8.10;;
13303;SDS011;6720;51.958;4.540;2023-07-31T04:57:46;13.53;;;8.13;;
13303;SDS011;6720;51.958;4.540;2023-07-31T05:00:12;16.00;;;7.90;;
13303;SDS011;6720;51.958;4.540;2023-07-31T05:02:37;14.70;;;7.77;;
13303;SDS011;6720;51.958;4.540;2023-07-31T05:05:03;16.40;;;7.93;;
13303;SDS011;6720;51.958;4.540;2023-07-31T05:07:28;14.30;;;7.80;;
13303;SDS011;6720;51.958;4.540;2023-07-31T05:09:54;15.73;;;7.33;;
13303;SDS011;6720;51.958;4.540;2023-07-31T05:12:19;11.90;;;6.97;;
13303;SDS011;6720;51.958;4.540;2023-07-31T05:14:45;15.10;;;7.30;;
13303;SDS011;6720;51.958;4.540;2023-07-31T05:17:10;14.10;;;6.87;;
13303;SDS011;6720;51.958;4.540;2023-07-31T05:19:35;12.07;;;6.43;;
13303;SDS011;6720;51.958;4.540;2023-07-31T05:22:01;10.77;;;5.97;;
13303;SDS011;6720;51.958;4.540;2023-07-31T05:24:26;10.30;;;6.60;;
13303;SDS011;6720;51.958;4.540;2023-07-31T05:26:52;11.23;;;6.10;;
13303;SDS011;6720;51.958;4.540;2023-07-31T05:29:17;9.80;;;5.70;;
13303;SDS011;6720;51.958;4.540;2023-07-31T05:31:42;11.07;;;6.10;;
13303;SDS011;6720;51.958;4.540;2023-07-31T05:34:08;10.13;;;6.30;;
13303;SDS011;6720;51.958;4.540;2023-07-31T05:36:33;9.00;;;5.93;;
13303;SDS011;6720;51.958;4.540;2023-07-31T05:38:59;7.87;;;5.00;;
13303;SDS011;6720;51.958;4.540;2023-07-31T05:41:24;9.63;;;5.43;;
13303;SDS011;6720;51.958;4.540;2023-07-31T05:43:50;8.20;;;4.97;;
13303;SDS011;6720;51.958;4.540;2023-07-31T05:46:16;10.03;;;5.20;;
13303;SDS011;6720;51.958;4.540;2023-07-31T05:48:42;8.90;;;4.73;;
13303;SDS011;6720;51.958;4.540;2023-07-31T05:51:07;9.93;;;5.13;;
13303;SDS011;6720;51.958;4.540;2023-07-31T05:53:32;8.13;;;4.87;;
13303;SDS011;6720;51.958;4.540;2023-07-31T05:55:58;7.93;;;5.10;;
13303;SDS011;6720;51.958;4.540;2023-07-31T05:58:23;11.93;;;5.33;;
13303;SDS011;6720;51.958;4.540;2023-07-31T06:00:49;9.10;;;4.77;;
13303;SDS011;6720;51.958;4.540;2023-07-31T06:03:14;10.77;;;5.10;;
13303;SDS011;6720;51.958;4.540;2023-07-31T06:05:40;9.37;;;5.30;;
13303;SDS011;6720;51.958;4.540;2023-07-31T06:08:05;9.40;;;5.17;;
13303;SDS011;6720;51.958;4.540;2023-07-31T06:10:31;6.20;;;4.87;;
13303;SDS011;6720;51.958;4.540;2023-07-31T06:12:56;6.57;;;4.50;;
13303;SDS011;6720;51.958;4.540;2023-07-31T06:15:22;10.27;;;4.93;;
13303;SDS011;6720;51.958;4.540;2023-07-31T06:17:47;6.27;;;4.40;;
13303;SDS011;6720;51.958;4.540;2023-07-31T06:20:13;5.23;;;4.17;;
13303;SDS011;6720;51.958;4.540;2023-07-31T06:22:38;6.57;;;4.70;;
13303;SDS011;6720;51.958;4.540;2023-07-31T06:25:04;5.90;;;3.80;;
13303;SDS011;6720;51.958;4.540;2023-07-31T06:27:29;6.60;;;3.83;;
13303;SDS011;6720;51.958;4.540;2023-07-31T06:29:55;7.67;;;4.10;;
13303;SDS011;6720;51.958;4.540;2023-07-31T06:32:20;5.47;;;3.53;;
13303;SDS011;6720;51.958;4.540;2023-07-31T06:34:46;5.43;;;3.90;;
13303;SDS011;6720;51.958;4.540;2023-07-31T06:37:11;4.10;;;3.23;;
13303;SDS011;6720;51.958;4.540;2023-07-31T06:39:36;4.47;;;3.57;;
13303;SDS011;6720;51.958;4.540;2023-07-31T06:42:02;5.83;;;3.63;;
13303;SDS011;6720;51.958;4.540;2023-07-31T06:44:28;4.20;;;3.47;;
13303;SDS011;6720;51.958;4.540;2023-07-31T06:46:53;5.57;;;3.70;;
13303;SDS011;6720;51.958;4.540;2023-07-31T06:49:19;4.67;;;3.33;;
13303;SDS011;6720;51.958;4.540;2023-07-31T06:51:44;5.47;;;4.10;;
13303;SDS011;6720;51.958;4.540;2023-07-31T06:54:10;4.67;;;3.47;;
13303;SDS011;6720;51.958;4.540;2023-07-31T06:56:35;5.73;;;3.90;;
13303;SDS011;6720;51.958;4.540;2023-07-31T06:59:01;3.90;;;3.53;;
13303;SDS011;6720;51.958;4.540;2023-07-31T07:01:26;4.60;;;3.73;;
13303;SDS011;6720;51.958;4.540;2023-07-31T07:03:53;3.90;;;3.50;;
13303;SDS011;6720;51.958;4.540;2023-07-31T07:06:19;6.83;;;3.63;;
13303;SDS011;6720;51.958;4.540;2023-07-31T07:08:44;4.33;;;3.43;;
13303;SDS011;6720;51.958;4.540;2023-07-31T07:11:10;4.60;;;3.30;;
13303;SDS011;6720;51.958;4.540;2023-07-31T07:13:35;6.47;;;3.90;;
13303;SDS011;6720;51.958;4.540;2023-07-31T07:16:01;2.93;;;2.73;;
13303;SDS011;6720;51.958;4.540;2023-07-31T07:18:26;3.73;;;3.17;;
13303;SDS011;6720;51.958;4.540;2023-07-31T07:20:52;3.73;;;3.07;;
13303;SDS011;6720;51.958;4.540;2023-07-31T07:23:19;2.90;;;2.60;;
13303;SDS011;6720;51.958;4.540;2023-07-31T07:25:46;4.40;;;3.10;;
13303;SDS011;6720;51.958;4.540;2023-07-31T07:28:12;3.97;;;2.77;;
13303;SDS011;6720;51.958;4.540;2023-07-31T07:30:38;3.73;;;2.83;;
13303;SDS011;6720;51.958;4.540;2023-07-31T07:33:03;3.37;;;2.47;;
13303;SDS011;6720;51.958;4.540;2023-07-31T07:35:29;4.07;;;2.63;;
13303;SDS011;6720;51.958;4.540;2023-07-31T07:37:54;3.23;;;2.30;;
13303;SDS011;6720;51.958;4.540;2023-07-31T07:40:20;3.23;;;2.30;;
13303;SDS011;6720;51.958;4.540;2023-07-31T07:42:46;2.27;;;2.10;;
13303;SDS011;6720;51.958;4.540;2023-07-31T07:45:12;2.67;;;2.07;;
13303;SDS011;6720;51.958;4.540;2023-07-31T07:47:38;2.07;;;1.87;;
13303;SDS011;6720;51.958;4.540;2023-07-31T07:50:05;2.23;;;2.03;;
13303;SDS011;6720;51.958;4.540;2023-07-31T07:52:31;2.33;;;2.00;;
13303;SDS011;6720;51.958;4.540;2023-07-31T07:54:57;2.23;;;2.03;;
13303;SDS011;6720;51.958;4.540;2023-07-31T07:57:22;3.67;;;2.20;;
13303;SDS011;6720;51.958;4.540;2023-07-31T07:59:47;2.53;;;2.10;;
13303;SDS011;6720;51.958;4.540;2023-07-31T08:02:13;2.10;;;1.90;;
13303;SDS011;6720;51.958;4.540;2023-07-31T08:04:38;2.83;;;2.17;;
13303;SDS011;6720;51.958;4.540;2023-07-31T08:07:04;1.97;;;1.87;;
13303;SDS011;6720;51.958;4.540;2023-07-31T08:09:29;2.73;;;1.90;;
13303;SDS011;6720;51.958;4.540;2023-07-31T08:11:54;2.17;;;1.87;;
13303;SDS011;6720;51.958;4.540;2023-07-31T08:14:22;2.20;;;2.00;;
13303;SDS011;6720;51.958;4.540;2023-07-31T08:16:48;3.23;;;2.13;;
13303;SDS011;6720;51.958;4.540;2023-07-31T08:19:13;2.20;;;2.00;;
13303;SDS011;6720;51.958;4.540;2023-07-31T08:21:39;2.27;;;2.00;;
13303;SDS011;6720;51.958;4.540;2023-07-31T08:24:04;3.07;;;1.90;;
13303;SDS011;6720;51.958;4.540;2023-07-31T08:26:29;2.20;;;2.00;;
13303;SDS011;6720;51.958;4.540;2023-07-31T08:28:55;2.40;;;2.10;;
13303;SDS011;6720;51.958;4.540;2023-07-31T08:31:20;2.37;;;2.00;;
13303;SDS011;6720;51.958;4.540;2023-07-31T08:33:46;2.87;;;2.03;;
13303;SDS011;6720;51.958;4.540;2023-07-31T08:36:11;4.93;;;2.20;;
13303;SDS011;6720;51.958;4.540;2023-07-31T08:38:37;2.27;;;2.07;;
13303;SDS011;6720;51.958;4.540;2023-07-31T08:41:03;3.20;;;1.97;;
13303;SDS011;6720;51.958;4.540;2023-07-31T08:43:29;1.93;;;1.83;;
13303;SDS011;6720;51.958;4.540;2023-07-31T08:45:55;2.53;;;2.10;;
13303;SDS011;6720;51.958;4.540;2023-07-31T08:48:22;2.97;;;2.10;;
13303;SDS011;6720;51.958;4.540;2023-07-31T08:50:49;3.47;;;2.20;;
13303;SDS011;6720;51.958;4.540;2023-07-31T08:53:15;3.03;;;2.10;;
13303;SDS011;6720;51.958;4.540;2023-07-31T08:55:41;2.17;;;1.97;;
13303;SDS011;6720;51.958;4.540;2023-07-31T08:58:07;2.40;;;2.20;;
13303;SDS011;6720;51.958;4.540;2023-07-31T09:00:33;3.30;;;2.30;;
13303;SDS011;6720;51.958;4.540;2023-07-31T09:03:00;2.97;;;2.23;;
13303;SDS011;6720;51.958;4.540;2023-07-31T09:05:28;3.07;;;2.33;;
13303;SDS011;6720;51.958;4.540;2023-07-31T09:07:55;3.53;;;3.00;;
13303;SDS011;6720;51.958;4.540;2023-07-31T09:10:22;5.77;;;3.23;;
13303;SDS011;6720;51.958;4.540;2023-07-31T09:12:48;4.10;;;3.17;;
13303;SDS011;6720;51.958;4.540;2023-07-31T09:15:14;5.27;;;3.60;;
13303;SDS011;6720;51.958;4.540;2023-07-31T09:17:40;5.10;;;3.67;;
13303;SDS011;6720;51.958;4.540;2023-07-31T09:20:15;5.77;;;4.10;;
13303;SDS011;6720;51.958;4.540;2023-07-31T09:22:42;4.57;;;4.10;;
13303;SDS011;6720;51.958;4.540;2023-07-31T09:25:19;5.00;;;3.80;;
13303;SDS011;6720;51.958;4.540;2023-07-31T09:27:53;3.90;;;3.30;;
13303;SDS011;6720;51.958;4.540;2023-07-31T09:30:25;4.93;;;3.47;;
13303;SDS011;6720;51.958;4.540;2023-07-31T09:32:59;3.87;;;3.10;;
13303;SDS011;6720;51.958;4.540;2023-07-31T09:35:32;4.20;;;3.13;;
13303;SDS011;6720;51.958;4.540;2023-07-31T09:37:59;4.33;;;3.37;;
13303;SDS011;6720;51.958;4.540;2023-07-31T09:40:37;4.13;;;3.63;;
13303;SDS011;6720;51.958;4.540;2023-07-31T09:43:07;4.70;;;3.40;;
13303;SDS011;6720;51.958;4.540;2023-07-31T09:45:38;4.23;;;3.83;;
13303;SDS011;6720;51.958;4.540;2023-07-31T09:48:09;4.13;;;3.50;;
13303;SDS011;6720;51.958;4.540;2023-07-31T09:50:36;5.40;;;3.57;;
13303;SDS011;6720;51.958;4.540;2023-07-31T09:53:03;4.20;;;3.70;;
13303;SDS011;6720;51.958;4.540;2023-07-31T09:55:29;7.00;;;3.63;;
13303;SDS011;6720;51.958;4.540;2023-07-31T09:57:56;5.00;;;3.30;;
13303;SDS011;6720;51.958;4.540;2023-07-31T10:00:22;4.57;;;3.70;;
13303;SDS011;6720;51.958;4.540;2023-07-31T10:02:50;4.30;;;3.80;;
13303;SDS011;6720;51.958;4.540;2023-07-31T10:05:16;5.07;;;3.63;;
13303;SDS011;6720;51.958;4.540;2023-07-31T10:07:43;4.87;;;3.57;;
13303;SDS011;6720;51.958;4.540;2023-07-31T10:10:13;5.70;;;3.60;;
13303;SDS011;6720;51.958;4.540;2023-07-31T10:12:41;5.10;;;3.50;;
13303;SDS011;6720;51.958;4.540;2023-07-31T10:15:09;6.80;;;3.33;;
13303;SDS011;6720;51.958;4.540;2023-07-31T10:17:35;3.97;;;3.63;;
13303;SDS011;6720;51.958;4.540;2023-07-31T10:20:01;4.70;;;3.77;;
13303;SDS011;6720;51.958;4.540;2023-07-31T10:22:30;5.00;;;3.80;;
13303;SDS011;6720;51.958;4.540;2023-07-31T10:24:57;6.67;;;4.10;;
13303;SDS011;6720;51.958;4.540;2023-07-31T10:27:24;7.70;;;4.40;;
13303;SDS011;6720;51.958;4.540;2023-07-31T10:29:50;7.37;;;4.00;;
13303;SDS011;6720;51.958;4.540;2023-07-31T10:32:18;8.00;;;4.20;;
13303;SDS011;6720;51.958;4.540;2023-07-31T10:34:45;7.10;;;3.93;;
13303;SDS011;6720;51.958;4.540;2023-07-31T10:44:59;11.90;;;4.80;;
13303;SDS011;6720;51.958;4.540;2023-07-31T10:47:26;8.30;;;4.73;;
13303;SDS011;6720;51.958;4.540;2023-07-31T10:49:51;11.83;;;5.17;;
13303;SDS011;6720;51.958;4.540;2023-07-31T10:52:20;9.70;;;5.13;;
13303;SDS011;6720;51.958;4.540;2023-07-31T10:55:13;10.40;;;4.70;;
13303;SDS011;6720;51.958;4.540;2023-07-31T10:57:49;9.00;;;5.30;;
13303;SDS011;6720;51.958;4.540;2023-07-31T11:00:21;11.83;;;5.07;;
13303;SDS011;6720;51.958;4.540;2023-07-31T11:02:58;10.03;;;5.30;;
13303;SDS011;6720;51.958;4.540;2023-07-31T11:08:34;10.87;;;6.30;;
13303;SDS011;6720;51.958;4.540;2023-07-31T11:11:06;12.53;;;6.77;;
13303;SDS011;6720;51.958;4.540;2023-07-31T11:16:05;8.93;;;6.50;;
13303;SDS011;6720;51.958;4.540;2023-07-31T11:18:31;9.50;;;7.13;;
13303;SDS011;6720;51.958;4.540;2023-07-31T11:20:56;9.57;;;8.03;;
13303;SDS011;6720;51.958;4.540;2023-07-31T11:23:22;11.97;;;7.80;;
13303;SDS011;6720;51.958;4.540;2023-07-31T11:25:48;10.63;;;7.83;;
13303;SDS011;6720;51.958;4.540;2023-07-31T11:28:15;10.37;;;7.77;;
13303;SDS011;6720;51.958;4.540;2023-07-31T11:30:42;12.53;;;8.30;;
13303;SDS011;6720;51.958;4.540;2023-07-31T11:33:09;11.20;;;7.30;;
13303;SDS011;6720;51.958;4.540;2023-07-31T11:35:41;11.77;;;7.87;;
13303;SDS011;6720;51.958;4.540;2023-07-31T11:38:10;8.53;;;7.47;;
13303;SDS011;6720;51.958;4.540;2023-07-31T11:40:43;10.97;;;6.90;;
13303;SDS011;6720;51.958;4.540;2023-07-31T11:43:09;11.67;;;8.00;;
13303;SDS011;6720;51.958;4.540;2023-07-31T11:45:36;9.80;;;7.43;;
13303;SDS011;6720;51.958;4.540;2023-07-31T11:48:03;10.70;;;7.57;;
13303;SDS011;6720;51.958;4.540;2023-07-31T11:50:28;10.17;;;7.30;;
13303;SDS011;6720;51.958;4.540;2023-07-31T11:52:59;8.67;;;6.00;;
13303;SDS011;6720;51.958;4.540;2023-07-31T11:55:26;8.67;;;5.73;;
13303;SDS011;6720;51.958;4.540;2023-07-31T11:57:52;9.43;;;6.03;;
13303;SDS011;6720;51.958;4.540;2023-07-31T12:00:21;9.70;;;5.30;;
13303;SDS011;6720;51.958;4.540;2023-07-31T12:02:46;6.97;;;4.93;;
13303;SDS011;6720;51.958;4.540;2023-07-31T12:05:12;8.90;;;5.17;;
13303;SDS011;6720;51.958;4.540;2023-07-31T12:07:45;8.43;;;4.87;;
13303;SDS011;6720;51.958;4.540;2023-07-31T12:13:10;6.90;;;4.10;;
13303;SDS011;6720;51.958;4.540;2023-07-31T12:18:11;6.13;;;4.60;;
13303;SDS011;6720;51.958;4.540;2023-07-31T12:20:41;6.40;;;4.43;;
13303;SDS011;6720;51.958;4.540;2023-07-31T12:23:12;7.97;;;4.77;;
13303;SDS011;6720;51.958;4.540;2023-07-31T12:26:12;5.93;;;5.20;;
13303;SDS011;6720;51.958;4.540;2023-07-31T12:28:48;7.33;;;5.77;;
13303;SDS011;6720;51.958;4.540;2023-07-31T12:31:15;7.13;;;5.33;;
13303;SDS011;6720;51.958;4.540;2023-07-31T12:33:45;5.40;;;4.90;;
13303;SDS011;6720;51.958;4.540;2023-07-31T12:36:12;7.87;;;5.37;;
13303;SDS011;6720;51.958;4.540;2023-07-31T12:38:42;7.87;;;4.97;;
13303;SDS011;6720;51.958;4.540;2023-07-31T12:41:08;7.53;;;4.90;;
13303;SDS011;6720;51.958;4.540;2023-07-31T12:43:34;6.87;;;4.80;;
13303;SDS011;6720;51.958;4.540;2023-07-31T12:46:00;8.70;;;5.50;;
13303;SDS011;6720;51.958;4.540;2023-07-31T12:48:25;5.63;;;4.50;;
13303;SDS011;6720;51.958;4.540;2023-07-31T12:50:51;5.00;;;4.17;;
13303;SDS011;6720;51.958;4.540;2023-07-31T12:53:16;4.63;;;3.90;;
13303;SDS011;6720;51.958;4.540;2023-07-31T12:55:42;4.87;;;3.80;;
13303;SDS011;6720;51.958;4.540;2023-07-31T12:58:07;5.53;;;3.50;;
13303;SDS011;6720;51.958;4.540;2023-07-31T13:00:33;5.20;;;3.50;;
13303;SDS011;6720;51.958;4.540;2023-07-31T13:02:58;3.13;;;2.80;;
13303;SDS011;6720;51.958;4.540;2023-07-31T13:05:25;3.30;;;3.00;;
13303;SDS011;6720;51.958;4.540;2023-07-31T13:07:50;3.07;;;2.87;;
13303;SDS011;6720;51.958;4.540;2023-07-31T13:10:17;3.97;;;3.57;;
13303;SDS011;6720;51.958;4.540;2023-07-31T13:12:43;3.80;;;3.27;;
13303;SDS011;6720;51.958;4.540;2023-07-31T13:15:08;3.33;;;2.87;;
13303;SDS011;6720;51.958;4.540;2023-07-31T13:17:34;4.70;;;2.93;;
13303;SDS011;6720;51.958;4.540;2023-07-31T13:20:00;3.73;;;3.00;;
13303;SDS011;6720;51.958;4.540;2023-07-31T13:22:26;4.23;;;3.00;;
13303;SDS011;6720;51.958;4.540;2023-07-31T13:24:51;3.43;;;2.63;;
13303;SDS011;6720;51.958;4.540;2023-07-31T13:27:17;3.03;;;2.60;;
13303;SDS011;6720;51.958;4.540;2023-07-31T13:29:44;3.57;;;2.60;;
13303;SDS011;6720;51.958;4.540;2023-07-31T13:32:10;5.03;;;2.70;;
13303;SDS011;6720;51.958;4.540;2023-07-31T13:34:36;3.13;;;2.57;;
13303;SDS011;6720;51.958;4.540;2023-07-31T13:37:02;2.30;;;2.10;;
13303;SDS011;6720;51.958;4.540;2023-07-31T13:39:27;3.13;;;1.97;;
13303;SDS011;6720;51.958;4.540;2023-07-31T13:41:53;2.03;;;1.83;;
13303;SDS011;6720;51.958;4.540;2023-07-31T13:44:18;1.67;;;1.57;;
13303;SDS011;6720;51.958;4.540;2023-07-31T13:46:44;1.97;;;1.70;;
13303;SDS011;6720;51.958;4.540;2023-07-31T13:49:09;2.30;;;1.70;;
13303;SDS011;6720;51.958;4.540;2023-07-31T13:51:35;1.87;;;1.77;;
13303;SDS011;6720;51.958;4.540;2023-07-31T13:54:01;2.50;;;2.30;;
13303;SDS011;6720;51.958;4.540;2023-07-31T13:56:26;2.77;;;2.00;;
13303;SDS011;6720;51.958;4.540;2023-07-31T13:58:52;2.43;;;1.70;;
13303;SDS011;6720;51.958;4.540;2023-07-31T14:01:17;1.67;;;1.57;;
13303;SDS011;6720;51.958;4.540;2023-07-31T14:03:42;1.50;;;1.30;;
13303;SDS011;6720;51.958;4.540;2023-07-31T14:06:08;1.70;;;1.60;;
13303;SDS011;6720;51.958;4.540;2023-07-31T14:08:33;1.80;;;1.67;;
13303;SDS011;6720;51.958;4.540;2023-07-31T14:10:59;2.07;;;1.57;;
13303;SDS011;6720;51.958;4.540;2023-07-31T14:13:24;2.27;;;1.70;;
13303;SDS011;6720;51.958;4.540;2023-07-31T14:15:49;3.03;;;1.83;;
13303;SDS011;6720;51.958;4.540;2023-07-31T14:18:15;1.80;;;1.70;;
13303;SDS011;6720;51.958;4.540;2023-07-31T14:20:40;1.67;;;1.57;;
13303;SDS011;6720;51.958;4.540;2023-07-31T14:23:06;1.80;;;1.70;;
13303;SDS011;6720;51.958;4.540;2023-07-31T14:25:32;2.73;;;2.07;;
13303;SDS011;6720;51.958;4.540;2023-07-31T14:27:59;3.20;;;2.43;;
13303;SDS011;6720;51.958;4.540;2023-07-31T14:30:25;2.80;;;2.60;;
13303;SDS011;6720;51.958;4.540;2023-07-31T14:32:51;3.27;;;2.40;;
13303;SDS011;6720;51.958;4.540;2023-07-31T14:35:16;2.70;;;2.50;;
13303;SDS011;6720;51.958;4.540;2023-07-31T14:37:43;3.07;;;2.77;;
13303;SDS011;6720;51.958;4.540;2023-07-31T14:40:10;3.13;;;2.77;;
13303;SDS011;6720;51.958;4.540;2023-07-31T14:42:37;2.90;;;2.70;;
13303;SDS011;6720;51.958;4.540;2023-07-31T14:45:04;3.17;;;2.97;;
13303;SDS011;6720;51.958;4.540;2023-07-31T14:47:31;3.57;;;3.27;;
13303;SDS011;6720;51.958;4.540;2023-07-31T14:49:57;3.90;;;3.60;;
13303;SDS011;6720;51.958;4.540;2023-07-31T14:52:23;4.00;;;3.50;;
13303;SDS011;6720;51.958;4.540;2023-07-31T14:54:48;4.03;;;3.70;;
13303;SDS011;6720;51.958;4.540;2023-07-31T14:57:13;4.13;;;3.53;;
13303;SDS011;6720;51.958;4.540;2023-07-31T14:59:39;3.10;;;2.80;;
13303;SDS011;6720;51.958;4.540;2023-07-31T15:02:04;2.90;;;2.50;;
13303;SDS011;6720;51.958;4.540;2023-07-31T15:04:30;3.27;;;2.23;;
13303;SDS011;6720;51.958;4.540;2023-07-31T15:06:56;4.20;;;2.60;;
13303;SDS011;6720;51.958;4.540;2023-07-31T15:09:21;3.40;;;2.50;;
13303;SDS011;6720;51.958;4.540;2023-07-31T15:11:47;2.77;;;2.23;;
13303;SDS011;6720;51.958;4.540;2023-07-31T15:14:12;2.83;;;2.40;;
13303;SDS011;6720;51.958;4.540;2023-07-31T15:16:40;2.60;;;2.40;;
13303;SDS011;6720;51.958;4.540;2023-07-31T15:19:06;2.63;;;2.43;;